createdAt,value
2023-05-25T00:00:30.390Z,69.97
2023-05-25T00:05:35.334Z,70.05
2023-05-25T00:10:39.023Z,70.16
2023-05-25T00:15:42.666Z,70.07
2023-05-25T00:20:48.475Z,70.42
2023-05-25T00:25:52.024Z,70.59
2023-05-25T00:30:56.077Z,70.53
2023-05-25T00:36:01.306Z,70.76
2023-05-25T00:41:06.105Z,70.56
2023-05-25T00:46:11.777Z,70.61
2023-05-25T00:51:17.379Z,70.72
2023-05-25T00:56:24.047Z,70.80
2023-05-25T01:01:33.661Z,70.76
2023-05-25T01:06:45.467Z,71.29
2023-05-25T01:11:52.890Z,71.58
2023-05-25T01:16:57.035Z,71.86
2023-05-25T01:22:07.819Z,71.71
2023-05-25T01:27:17.404Z,72.05
2023-05-25T01:32:21.765Z,72.67
2023-05-25T01:37:28.693Z,71.14
2023-05-25T01:42:32.156Z,72.66
2023-05-25T01:47:45.771Z,72.74
2023-05-25T01:52:56.718Z,73.15
2023-05-25T01:58:01.047Z,72.97
2023-05-25T02:03:05.978Z,72.98
2023-05-25T02:08:10.978Z,72.71
2023-05-25T02:13:14.509Z,72.69
2023-05-25T02:18:18.380Z,72.23
2023-05-25T02:23:23.231Z,71.90
2023-05-25T02:28:26.749Z,71.48
2023-05-25T02:33:30.598Z,71.44
2023-05-25T02:38:35.522Z,71.12
2023-05-25T02:43:39.414Z,70.83
2023-05-25T02:48:44.082Z,70.23
2023-05-25T02:53:49.463Z,69.62
2023-05-25T02:58:54.628Z,69.30
2023-05-25T03:03:58.439Z,69.00
2023-05-25T03:09:05.283Z,67.92
2023-05-25T03:14:08.893Z,67.73
2023-05-25T03:19:13.001Z,66.79
2023-05-25T03:24:17.965Z,66.43
2023-05-25T03:29:21.832Z,66.27
2023-05-25T03:34:26.472Z,66.24
2023-05-25T03:39:31.613Z,65.18
2023-05-25T03:44:35.097Z,63.93
2023-05-25T03:49:38.595Z,63.04
2023-05-25T03:54:43.539Z,62.00
2023-05-25T03:59:47.139Z,61.13
2023-05-25T04:04:52.088Z,60.13
2023-05-25T04:09:58.300Z,59.13
2023-05-25T04:15:04.134Z,57.58
2023-05-25T04:20:11.185Z,55.06
2023-05-25T04:25:17.181Z,51.77
2023-05-25T04:30:20.710Z,48.74
2023-05-25T04:35:24.204Z,48.58
2023-05-25T04:40:29.141Z,49.19
2023-05-25T04:45:33.526Z,50.01
2023-05-25T04:50:37.569Z,50.02
2023-05-25T04:55:42.841Z,49.44
2023-05-25T05:00:47.399Z,48.47
2023-05-25T05:05:50.936Z,47.42
2023-05-25T05:10:55.942Z,47.04
2023-05-25T05:15:59.577Z,43.99
2023-05-25T05:21:03.606Z,40.89
2023-05-25T05:26:11.175Z,41.98
2023-05-25T05:31:17.410Z,42.52
2023-05-25T05:36:21.035Z,41.31
2023-05-25T05:41:26.023Z,39.18
2023-05-25T05:46:29.785Z,38.55
2023-05-25T05:51:33.656Z,38.32
2023-05-25T05:56:38.627Z,39.81
2023-05-25T06:01:42.784Z,42.75
2023-05-25T06:06:46.487Z,45.69
2023-05-25T06:11:51.687Z,47.13
2023-05-25T06:16:56.097Z,47.97
2023-05-25T06:21:59.749Z,48.62
2023-05-25T06:27:05.104Z,48.85
2023-05-25T06:32:11.092Z,48.33
2023-05-25T06:37:15.863Z,48.98
2023-05-25T06:42:20.861Z,48.26
2023-05-25T06:47:24.452Z,49.15
2023-05-25T06:52:29.468Z,49.61
2023-05-25T06:57:34.829Z,49.75
2023-05-25T07:02:38.426Z,50.13
2023-05-25T07:07:42.038Z,50.07
2023-05-25T07:12:47.141Z,49.60
2023-05-25T07:17:50.770Z,49.72
2023-05-25T07:22:54.741Z,49.40
2023-05-25T07:27:59.354Z,48.88
2023-05-25T07:33:02.862Z,49.17
2023-05-25T07:38:06.843Z,48.51
2023-05-25T07:43:11.547Z,48.56
2023-05-25T07:48:15.385Z,48.53
2023-05-25T07:53:18.656Z,48.43
2023-05-25T07:58:23.618Z,48.91
2023-05-25T08:03:39.914Z,49.02
2023-05-25T08:08:50.977Z,48.28
2023-05-25T08:14:19.744Z,48.17
2023-05-25T08:19:24.338Z,48.13
2023-05-25T08:24:27.867Z,48.89
2023-05-25T08:29:32.794Z,49.30
2023-05-25T08:34:36.333Z,49.13
2023-05-25T08:39:39.947Z,49.75
2023-05-25T08:44:45.064Z,49.79
2023-05-25T08:49:51.138Z,50.45
2023-05-25T08:54:59.870Z,50.51
2023-05-25T09:00:10.977Z,50.97
2023-05-25T09:05:15.087Z,51.29
2023-05-25T09:10:19.220Z,51.41
2023-05-25T09:15:24.140Z,52.09
2023-05-25T09:20:31.758Z,52.48
2023-05-25T09:25:36.693Z,52.37
2023-05-25T09:30:42.293Z,51.24
2023-05-25T09:35:46.316Z,50.54
2023-05-25T09:40:49.813Z,50.65
2023-05-25T09:45:55.454Z,50.58
2023-05-25T09:50:59.244Z,49.81
2023-05-25T09:56:04.188Z,49.54
2023-05-25T10:01:09.570Z,49.79
2023-05-25T10:06:14.457Z,50.24
2023-05-25T10:11:18.894Z,50.37
2023-05-25T10:16:28.118Z,50.27
2023-05-25T10:21:33.008Z,50.57
2023-05-25T10:26:41.780Z,50.43
2023-05-25T10:31:47.528Z,49.87
2023-05-25T10:36:52.514Z,49.06
2023-05-25T10:41:57.096Z,48.47
2023-05-25T10:47:02.134Z,49.55
2023-05-25T10:52:06.373Z,50.14
2023-05-25T10:57:11.367Z,50.49
2023-05-25T11:02:16.844Z,50.58
2023-05-25T11:07:23.471Z,49.98
2023-05-25T11:12:28.383Z,49.62
2023-05-25T11:17:36.176Z,49.52
2023-05-25T11:22:40.567Z,50.00
2023-05-25T11:27:47.626Z,50.14
2023-05-25T11:32:52.740Z,49.85
2023-05-25T11:37:56.577Z,48.56
2023-05-25T11:43:01.458Z,48.40
2023-05-25T11:48:07.750Z,48.88
2023-05-25T11:53:11.975Z,49.10
2023-05-25T11:58:16.477Z,49.28
2023-05-25T12:03:33.908Z,49.92
2023-05-25T12:08:37.808Z,49.89
2023-05-25T12:13:42.847Z,50.14
2023-05-25T12:18:48.411Z,50.16
2023-05-25T12:23:52.440Z,50.19
2023-05-25T12:29:03.121Z,49.77
2023-05-25T12:34:12.366Z,48.96
2023-05-25T12:39:17.276Z,48.00
2023-05-25T12:44:27.879Z,47.20
2023-05-25T12:49:34.226Z,47.76
2023-05-25T12:54:41.180Z,47.23
2023-05-25T12:59:45.833Z,46.39
2023-05-25T13:04:50.890Z,46.18
2023-05-25T13:09:54.626Z,46.00
2023-05-25T13:14:58.176Z,44.94
2023-05-25T13:20:04.688Z,44.71
2023-05-25T13:25:08.737Z,43.76
2023-05-25T13:30:12.696Z,44.38
2023-05-25T13:35:23.556Z,42.65
2023-05-25T13:40:27.603Z,41.59
2023-05-25T13:45:31.153Z,41.73
2023-05-25T13:50:36.152Z,40.95
2023-05-25T13:55:39.774Z,41.62
2023-05-25T14:00:43.544Z,41.90
2023-05-25T14:05:49.017Z,42.30
2023-05-25T14:10:54.470Z,42.37
2023-05-25T14:15:58.034Z,43.81
2023-05-25T14:21:03.018Z,43.60
2023-05-25T14:26:06.677Z,43.37
2023-05-25T14:31:10.285Z,43.94
2023-05-25T14:36:15.230Z,44.30
2023-05-25T14:41:18.743Z,44.63
2023-05-25T14:46:22.600Z,44.99
2023-05-25T14:51:27.804Z,45.72
2023-05-25T14:56:32.766Z,46.34
2023-05-25T15:01:36.436Z,46.17
2023-05-25T15:06:41.471Z,46.17
2023-05-25T15:11:45.067Z,45.95
2023-05-25T15:16:48.578Z,46.06
2023-05-25T15:21:53.536Z,45.91
2023-05-25T15:26:57.064Z,45.99
2023-05-25T15:32:00.818Z,46.04
2023-05-25T15:37:06.337Z,46.58
2023-05-25T15:42:09.869Z,46.35
2023-05-25T15:47:13.557Z,45.93
2023-05-25T15:52:18.458Z,46.54
2023-05-25T15:57:21.804Z,46.34
2023-05-25T16:02:25.371Z,46.78
2023-05-25T16:07:30.251Z,46.93
2023-05-25T16:12:33.992Z,47.62
2023-05-25T16:17:37.550Z,48.14
2023-05-25T16:22:42.466Z,48.47
2023-05-25T16:27:47.705Z,48.63
2023-05-25T16:32:51.252Z,48.71
2023-05-25T16:37:56.276Z,49.33
2023-05-25T16:42:59.781Z,49.67
2023-05-25T16:48:03.425Z,50.24
2023-05-25T16:53:08.638Z,50.76
2023-05-25T16:58:12.507Z,50.74
2023-05-25T17:03:16.171Z,51.05
2023-05-25T17:08:21.201Z,51.60
2023-05-25T17:13:24.771Z,52.36
2023-05-25T17:18:28.792Z,53.16
2023-05-25T17:23:33.583Z,53.14
2023-05-25T17:28:36.996Z,54.52
2023-05-25T17:33:40.506Z,55.03
2023-05-25T17:38:45.424Z,55.73
2023-05-25T17:43:48.957Z,56.31
2023-05-25T17:48:52.534Z,56.59
2023-05-25T17:53:57.613Z,57.77
2023-05-25T17:59:01.234Z,58.23
2023-05-25T18:04:05.125Z,58.91
2023-05-25T18:09:10.300Z,59.84
2023-05-25T18:14:14.036Z,60.53
2023-05-25T18:19:20.350Z,60.68
2023-05-25T18:24:26.055Z,60.91
2023-05-25T18:29:29.582Z,61.83
2023-05-25T18:34:33.207Z,62.04
2023-05-25T18:39:38.261Z,62.32
2023-05-25T18:44:41.915Z,62.45
2023-05-25T18:49:45.660Z,62.86
2023-05-25T18:54:50.679Z,63.33
2023-05-25T18:59:55.669Z,63.88
2023-05-25T19:04:59.165Z,64.11
2023-05-25T19:10:04.099Z,64.22
2023-05-25T19:15:08.821Z,64.20
2023-05-25T19:20:12.979Z,64.30
2023-05-25T19:25:18.919Z,64.30
2023-05-25T19:30:23.980Z,64.81
2023-05-25T19:35:27.524Z,64.93
2023-05-25T19:40:33.464Z,65.18
2023-05-25T19:45:37.143Z,65.39
2023-05-25T19:50:40.742Z,65.71
2023-05-25T19:55:45.996Z,65.85
2023-05-25T20:00:49.749Z,65.85
2023-05-25T20:05:53.582Z,65.58
2023-05-25T20:10:58.586Z,66.05
2023-05-25T20:16:02.169Z,66.06
2023-05-25T20:21:06.903Z,66.21
2023-05-25T20:26:11.865Z,66.25
2023-05-25T20:31:15.425Z,66.10
2023-05-25T20:36:18.970Z,66.18
2023-05-25T20:41:23.909Z,66.25
2023-05-25T20:46:27.589Z,66.30
2023-05-25T20:51:32.823Z,66.21
2023-05-25T20:56:38.244Z,66.68
2023-05-25T21:01:44.319Z,66.82
2023-05-25T21:06:47.889Z,67.18
2023-05-25T21:11:52.785Z,66.80
2023-05-25T21:16:56.513Z,66.65
2023-05-25T21:22:00.162Z,66.78
2023-05-25T21:27:05.531Z,66.96
2023-05-25T21:32:09.633Z,66.97
2023-05-25T21:37:13.181Z,66.94
2023-05-25T21:42:18.195Z,67.09
2023-05-25T21:47:22.257Z,67.32
2023-05-25T21:52:25.934Z,67.36
2023-05-25T21:57:30.859Z,67.61
2023-05-25T22:02:34.655Z,67.91
2023-05-25T22:07:38.370Z,67.54
2023-05-25T22:12:43.489Z,67.74
2023-05-25T22:17:47.310Z,67.68
2023-05-25T22:22:51.080Z,67.28
2023-05-25T22:27:56.744Z,67.83
2023-05-25T22:33:00.333Z,67.71
2023-05-25T22:38:03.943Z,67.85
2023-05-25T22:43:12.903Z,67.82
2023-05-25T22:48:16.470Z,67.89
2023-05-25T22:53:20.068Z,67.85
2023-05-25T22:58:25.505Z,67.49
2023-05-25T23:03:30.314Z,67.54
2023-05-25T23:08:33.964Z,67.70
2023-05-25T23:13:38.908Z,67.93
2023-05-25T23:18:43.113Z,68.04
2023-05-25T23:23:46.613Z,68.49
2023-05-25T23:28:51.643Z,68.65
2023-05-25T23:33:58.368Z,68.23
2023-05-25T23:39:01.926Z,68.20
2023-05-25T23:44:07.360Z,69.04
2023-05-25T23:49:10.891Z,69.02
2023-05-25T23:54:14.429Z,68.86
2023-05-25T23:59:19.348Z,68.68
